createdAt,value
2023-02-26T00:01:26.615Z,11.98
2023-02-26T00:03:56.081Z,12.04
2023-02-26T00:06:25.099Z,12.10
2023-02-26T00:08:52.622Z,12.34
2023-02-26T00:11:20.381Z,12.45
2023-02-26T00:13:47.587Z,12.49
2023-02-26T00:16:31.837Z,12.25
2023-02-26T00:19:01.921Z,12.45
2023-02-26T00:21:30.074Z,12.57
2023-02-26T00:23:58.394Z,12.54
2023-02-26T00:26:27.218Z,12.63
2023-02-26T00:28:54.689Z,12.55
2023-02-26T00:31:24.993Z,12.64
2023-02-26T00:33:56.066Z,12.62
2023-02-26T00:36:24.968Z,12.57
2023-02-26T00:39:19.926Z,12.56
2023-02-26T00:41:48.197Z,12.55
2023-02-26T00:44:15.338Z,12.49
2023-02-26T00:47:14.665Z,12.42
2023-02-26T00:50:13.788Z,12.28
2023-02-26T00:52:54.357Z,12.33
2023-02-26T00:55:21.354Z,12.35
2023-02-26T00:57:48.261Z,12.39
2023-02-26T01:00:16.129Z,12.48
2023-02-26T01:02:44.055Z,12.58
2023-02-26T01:05:12.000Z,12.58
2023-02-26T01:07:58.616Z,12.60
2023-02-26T01:10:26.101Z,12.61
2023-02-26T01:12:53.323Z,12.74
2023-02-26T01:15:20.467Z,12.73
2023-02-26T01:18:05.951Z,12.74
2023-02-26T01:20:50.938Z,12.61
2023-02-26T01:23:24.426Z,12.61
2023-02-26T01:25:59.198Z,12.56
2023-02-26T01:28:26.801Z,12.70
2023-02-26T01:31:00.930Z,12.76
2023-02-26T01:33:33.228Z,12.76
2023-02-26T01:36:23.114Z,12.84
2023-02-26T01:39:25.883Z,12.84
2023-02-26T01:41:55.875Z,12.92
2023-02-26T01:44:22.695Z,13.08
2023-02-26T01:47:01.909Z,13.12
2023-02-26T01:49:29.081Z,13.10
2023-02-26T01:52:00.917Z,13.10
2023-02-26T01:54:32.246Z,13.15
2023-02-26T01:57:12.645Z,13.21
2023-02-26T01:59:48.464Z,13.10
2023-02-26T02:02:19.181Z,13.20
2023-02-26T02:04:47.589Z,13.22
2023-02-26T02:07:14.853Z,13.24
2023-02-26T02:09:42.853Z,13.19
2023-02-26T02:12:37.480Z,13.26
2023-02-26T02:15:13.547Z,13.23
2023-02-26T02:18:02.823Z,13.35
2023-02-26T02:20:51.772Z,13.36
2023-02-26T02:23:33.722Z,13.33
2023-02-26T02:26:38.084Z,13.31
2023-02-26T02:29:26.598Z,13.24
2023-02-26T02:32:11.930Z,13.34
2023-02-26T02:34:46.361Z,13.41
2023-02-26T02:37:51.489Z,13.34
2023-02-26T02:40:26.581Z,13.32
2023-02-26T02:43:03.546Z,13.28
2023-02-26T02:45:41.104Z,13.29
2023-02-26T02:48:18.248Z,13.22
2023-02-26T02:50:52.321Z,13.31
2023-02-26T02:53:33.541Z,13.28
2023-02-26T02:56:34.837Z,13.25
2023-02-26T02:59:20.812Z,13.27
2023-02-26T03:01:57.574Z,13.26
2023-02-26T03:04:25.158Z,13.30
2023-02-26T03:06:51.968Z,13.29
2023-02-26T03:09:18.986Z,13.28
2023-02-26T03:11:45.760Z,13.11
2023-02-26T03:14:15.144Z,13.12
2023-02-26T03:17:20.114Z,13.24
2023-02-26T03:20:08.871Z,13.29
2023-02-26T03:22:43.665Z,13.38
2023-02-26T03:25:29.240Z,13.38
2023-02-26T03:28:25.622Z,13.40
2023-02-26T03:31:00.311Z,13.35
2023-02-26T03:34:06.097Z,13.45
2023-02-26T03:36:40.942Z,13.36
2023-02-26T03:39:28.469Z,13.55
2023-02-26T03:42:05.819Z,13.43
2023-02-26T03:44:59.261Z,13.46
2023-02-26T03:47:28.081Z,13.41
2023-02-26T03:50:04.568Z,13.43
2023-02-26T03:52:39.466Z,13.52
2023-02-26T03:55:35.002Z,13.62
2023-02-26T03:58:25.202Z,13.62
2023-02-26T04:01:20.164Z,13.62
2023-02-26T04:04:07.612Z,13.67
2023-02-26T04:06:35.290Z,13.61
2023-02-26T04:09:04.644Z,13.57
2023-02-26T04:11:35.687Z,13.68
2023-02-26T04:14:02.616Z,13.79
2023-02-26T04:16:32.528Z,13.77
2023-02-26T04:18:59.422Z,13.85
2023-02-26T04:21:26.318Z,13.79
2023-02-26T04:23:53.270Z,13.81
2023-02-26T04:26:20.716Z,13.90
2023-02-26T04:28:48.502Z,13.88
2023-02-26T04:31:15.813Z,13.82
2023-02-26T04:33:42.842Z,13.82
2023-02-26T04:36:09.822Z,13.87
2023-02-26T04:38:36.925Z,13.90
2023-02-26T04:41:04.735Z,13.84
2023-02-26T04:43:31.673Z,13.88
2023-02-26T04:46:20.937Z,13.89
2023-02-26T04:48:47.940Z,13.89
2023-02-26T04:51:14.933Z,13.90
2023-02-26T04:53:41.830Z,13.95
2023-02-26T04:56:10.002Z,13.95
2023-02-26T04:58:36.962Z,13.85
2023-02-26T05:01:09.216Z,13.91
2023-02-26T05:03:36.116Z,13.92
2023-02-26T05:06:02.939Z,13.90
2023-02-26T05:08:29.749Z,13.87
2023-02-26T05:10:56.783Z,13.91
2023-02-26T05:13:23.617Z,14.01
2023-02-26T05:15:50.554Z,14.04
2023-02-26T05:18:17.437Z,14.04
2023-02-26T05:20:44.323Z,14.07
2023-02-26T05:23:11.171Z,13.95
2023-02-26T05:25:39.235Z,14.04
2023-02-26T05:28:06.220Z,14.09
2023-02-26T05:30:33.199Z,14.13
2023-02-26T05:33:00.291Z,14.13
2023-02-26T05:35:27.070Z,14.10
2023-02-26T05:37:54.046Z,14.21
2023-02-26T05:40:20.841Z,14.31
2023-02-26T05:42:47.632Z,14.30
2023-02-26T05:45:14.634Z,14.24
2023-02-26T05:47:41.594Z,14.24
2023-02-26T05:50:09.373Z,14.25
2023-02-26T05:52:36.244Z,14.29
2023-02-26T05:55:04.161Z,14.24
2023-02-26T05:57:31.301Z,14.32
2023-02-26T05:59:58.163Z,14.28
2023-02-26T06:02:26.358Z,14.36
2023-02-26T06:04:53.208Z,14.38
2023-02-26T06:07:20.051Z,14.39
2023-02-26T06:09:46.930Z,14.41
2023-02-26T06:12:13.722Z,14.43
2023-02-26T06:14:40.624Z,14.48
2023-02-26T06:17:08.085Z,14.64
2023-02-26T06:19:34.924Z,14.61
2023-02-26T06:22:02.007Z,14.57
2023-02-26T06:24:28.845Z,14.71
2023-02-26T06:26:55.696Z,14.84
2023-02-26T06:29:23.555Z,14.65
2023-02-26T06:31:50.626Z,14.77
2023-02-26T06:34:17.629Z,14.90
2023-02-26T06:36:44.919Z,14.97
2023-02-26T06:39:13.015Z,14.97
2023-02-26T06:41:40.192Z,15.02
2023-02-26T06:44:07.024Z,15.04
2023-02-26T06:46:33.984Z,15.11
2023-02-26T06:49:00.867Z,15.06
2023-02-26T06:51:27.960Z,15.18
2023-02-26T06:53:55.057Z,15.31
2023-02-26T06:56:24.249Z,15.17
2023-02-26T06:58:51.760Z,15.25
2023-02-26T07:01:18.874Z,15.32
2023-02-26T07:03:45.798Z,15.18
2023-02-26T07:06:26.542Z,15.36
2023-02-26T07:08:53.898Z,15.39
2023-02-26T07:11:20.817Z,15.40
2023-02-26T07:13:47.707Z,15.37
2023-02-26T07:16:14.642Z,15.48
2023-02-26T07:18:41.705Z,15.48
2023-02-26T07:21:08.839Z,15.43
2023-02-26T07:23:35.882Z,15.60
2023-02-26T07:26:03.034Z,15.48
2023-02-26T07:28:30.240Z,15.54
2023-02-26T07:30:58.008Z,15.66
2023-02-26T07:33:26.637Z,15.53
2023-02-26T07:35:53.584Z,15.66
2023-02-26T07:38:21.017Z,15.48
2023-02-26T07:40:48.152Z,15.48
2023-02-26T07:43:15.144Z,15.41
2023-02-26T07:45:42.037Z,15.50
2023-02-26T07:48:08.907Z,15.56
2023-02-26T07:50:36.092Z,15.51
2023-02-26T07:53:03.151Z,15.63
2023-02-26T07:55:30.225Z,15.65
2023-02-26T07:57:57.029Z,15.76
2023-02-26T08:00:24.101Z,15.90
2023-02-26T08:02:51.140Z,15.91
2023-02-26T08:05:18.538Z,16.03
2023-02-26T08:07:45.337Z,15.84
2023-02-26T08:10:12.341Z,15.97
2023-02-26T08:12:39.274Z,15.99
2023-02-26T08:15:06.785Z,16.16
2023-02-26T08:17:34.069Z,16.06
2023-02-26T08:20:00.945Z,16.23
2023-02-26T08:22:27.848Z,16.38
2023-02-26T08:24:54.661Z,16.39
2023-02-26T08:27:21.548Z,16.59
2023-02-26T08:29:50.445Z,16.65
2023-02-26T08:32:20.083Z,16.86
2023-02-26T08:34:47.211Z,16.93
2023-02-26T08:37:14.318Z,16.91
2023-02-26T08:39:41.664Z,17.18
2023-02-26T08:42:09.937Z,17.11
2023-02-26T08:44:37.033Z,17.19
2023-02-26T08:47:03.979Z,17.12
2023-02-26T08:49:31.102Z,17.29
2023-02-26T08:51:58.107Z,17.27
2023-02-26T08:54:25.425Z,17.34
2023-02-26T08:56:57.987Z,17.43
2023-02-26T08:59:25.774Z,17.49
2023-02-26T09:01:52.983Z,17.55
2023-02-26T09:04:19.855Z,17.50
2023-02-26T09:06:46.770Z,17.56
2023-02-26T09:09:13.724Z,17.57
2023-02-26T09:11:40.700Z,17.77
2023-02-26T09:14:07.490Z,17.77
2023-02-26T09:16:36.914Z,17.76
2023-02-26T09:19:05.179Z,17.73
2023-02-26T09:21:32.517Z,17.83
2023-02-26T09:23:59.613Z,17.82
2023-02-26T09:26:26.772Z,17.80
2023-02-26T09:28:53.904Z,18.00
2023-02-26T09:31:21.995Z,18.10
2023-02-26T09:33:52.644Z,18.08
2023-02-26T09:36:19.525Z,18.17
2023-02-26T09:38:48.446Z,18.36
2023-02-26T09:41:31.872Z,18.44
2023-02-26T09:44:07.778Z,18.43
2023-02-26T09:47:01.454Z,18.52
2023-02-26T09:49:49.559Z,18.67
2023-02-26T09:52:49.058Z,18.51
2023-02-26T09:55:25.396Z,18.65
2023-02-26T09:57:58.263Z,18.90
2023-02-26T10:00:32.250Z,19.10
2023-02-26T10:03:17.828Z,19.24
2023-02-26T10:06:29.588Z,19.17
2023-02-26T10:08:56.575Z,19.35
2023-02-26T10:11:40.023Z,19.40
2023-02-26T10:14:13.222Z,19.51
2023-02-26T10:16:44.071Z,19.66
2023-02-26T10:19:17.274Z,19.71
2023-02-26T10:22:18.738Z,19.85
2023-02-26T10:24:51.561Z,19.93
2023-02-26T10:28:01.907Z,19.96
2023-02-26T10:30:44.117Z,19.97
2023-02-26T10:33:29.682Z,20.08
2023-02-26T10:36:10.421Z,19.95
2023-02-26T10:38:43.349Z,20.12
2023-02-26T10:41:15.890Z,19.73
2023-02-26T10:43:57.944Z,20.28
2023-02-26T10:46:46.294Z,20.09
2023-02-26T10:49:31.842Z,20.22
2023-02-26T10:52:10.618Z,20.19
2023-02-26T10:54:44.624Z,20.22
2023-02-26T10:57:30.144Z,20.07
2023-02-26T10:59:56.926Z,20.02
2023-02-26T11:02:42.873Z,19.95
2023-02-26T11:05:23.832Z,19.84
2023-02-26T11:08:15.531Z,19.82
2023-02-26T11:10:47.494Z,19.88
2023-02-26T11:13:14.291Z,20.01
2023-02-26T11:15:41.920Z,19.97
2023-02-26T11:18:17.080Z,19.85
2023-02-26T11:20:46.227Z,19.88
2023-02-26T11:23:17.660Z,19.90
2023-02-26T11:25:45.400Z,20.00
2023-02-26T11:28:32.383Z,20.04
2023-02-26T11:31:05.427Z,20.05
2023-02-26T11:33:37.825Z,19.66
2023-02-26T11:36:11.557Z,19.93
2023-02-26T11:38:39.011Z,19.87
2023-02-26T11:41:07.192Z,19.89
2023-02-26T11:43:45.020Z,19.92
2023-02-26T11:46:13.259Z,19.95
2023-02-26T11:48:39.982Z,20.10
2023-02-26T11:51:08.667Z,19.89
2023-02-26T11:53:37.973Z,19.91
2023-02-26T11:56:11.988Z,19.81
2023-02-26T11:58:41.043Z,19.74
2023-02-26T12:01:11.696Z,19.79
2023-02-26T12:03:43.801Z,19.70
2023-02-26T12:06:21.544Z,19.51
2023-02-26T12:08:49.185Z,19.60
2023-02-26T12:11:38.568Z,19.58
2023-02-26T12:14:05.582Z,19.62
2023-02-26T12:16:47.145Z,19.48
2023-02-26T12:19:48.061Z,19.58
2023-02-26T12:22:20.803Z,19.70
2023-02-26T12:25:17.325Z,19.42
2023-02-26T12:28:06.873Z,19.55
2023-02-26T12:30:46.320Z,19.09
2023-02-26T12:33:52.279Z,18.96
2023-02-26T12:36:48.802Z,18.89
2023-02-26T12:39:53.961Z,18.71
2023-02-26T12:42:42.259Z,18.78
2023-02-26T12:45:38.476Z,18.73
2023-02-26T12:48:14.769Z,18.44
2023-02-26T12:51:11.265Z,18.43
2023-02-26T12:53:48.412Z,18.43
2023-02-26T12:56:29.709Z,18.37
2023-02-26T12:59:26.034Z,18.26
2023-02-26T13:02:05.479Z,18.27
2023-02-26T13:04:35.241Z,18.25
2023-02-26T13:07:11.771Z,18.12
2023-02-26T13:10:03.421Z,18.21
2023-02-26T13:12:45.525Z,18.04
2023-02-26T13:15:21.531Z,18.11
2023-02-26T13:17:57.438Z,18.00
2023-02-26T13:20:26.711Z,17.90
2023-02-26T13:22:59.614Z,17.93
2023-02-26T13:25:48.876Z,17.91
2023-02-26T13:28:26.378Z,17.92
2023-02-26T13:30:56.527Z,17.80
2023-02-26T13:33:28.327Z,17.71
2023-02-26T13:35:56.570Z,17.54
2023-02-26T13:38:29.516Z,17.59
2023-02-26T13:41:21.032Z,17.68
2023-02-26T13:44:17.815Z,17.67
2023-02-26T13:47:02.968Z,17.64
2023-02-26T13:49:38.660Z,17.53
2023-02-26T13:52:05.663Z,17.62
2023-02-26T13:55:02.795Z,17.55
2023-02-26T13:57:35.673Z,17.55
2023-02-26T14:00:34.365Z,17.55
2023-02-26T14:03:29.916Z,17.65
2023-02-26T14:06:23.321Z,17.60
2023-02-26T14:08:58.475Z,17.64
2023-02-26T14:11:45.941Z,17.68
2023-02-26T14:14:24.607Z,17.67
2023-02-26T14:17:18.743Z,17.63
2023-02-26T14:20:23.862Z,17.66
2023-02-26T14:23:09.578Z,17.54
2023-02-26T14:25:52.790Z,17.59
2023-02-26T14:28:25.542Z,17.55
2023-02-26T14:31:11.322Z,17.54
2023-02-26T14:33:46.760Z,17.44
2023-02-26T14:36:42.835Z,17.40
2023-02-26T14:39:22.469Z,16.89
2023-02-26T14:41:50.113Z,17.28
2023-02-26T14:44:23.843Z,17.27
2023-02-26T14:46:52.454Z,17.28
2023-02-26T14:49:26.473Z,17.14
2023-02-26T14:52:36.373Z,17.19
2023-02-26T14:55:04.935Z,17.13
2023-02-26T14:58:01.573Z,17.17
2023-02-26T15:01:19.425Z,17.17
2023-02-26T15:04:24.543Z,17.20
2023-02-26T15:07:18.668Z,17.14
2023-02-26T15:09:58.405Z,17.09
2023-02-26T15:12:31.294Z,17.20
2023-02-26T15:15:07.924Z,17.19
2023-02-26T15:17:52.928Z,17.10
2023-02-26T15:20:26.942Z,16.96
2023-02-26T15:23:05.969Z,16.93
2023-02-26T15:25:44.969Z,16.90
2023-02-26T15:28:19.178Z,16.93
2023-02-26T15:30:48.934Z,16.88
2023-02-26T15:33:20.437Z,16.85
2023-02-26T15:35:51.959Z,16.68
2023-02-26T15:38:19.322Z,16.65
2023-02-26T15:40:47.406Z,16.64
2023-02-26T15:43:23.937Z,16.72
2023-02-26T15:45:55.856Z,16.56
2023-02-26T15:48:29.475Z,16.74
2023-02-26T15:51:02.719Z,16.71
2023-02-26T15:53:43.766Z,16.70
2023-02-26T15:56:19.616Z,16.63
2023-02-26T15:58:50.901Z,16.57
2023-02-26T16:01:20.498Z,16.66
2023-02-26T16:03:47.614Z,16.62
2023-02-26T16:06:18.816Z,16.60
2023-02-26T16:08:45.793Z,16.53
2023-02-26T16:11:13.811Z,16.49
2023-02-26T16:13:43.685Z,16.43
2023-02-26T16:16:26.507Z,16.38
2023-02-26T16:18:55.391Z,16.32
2023-02-26T16:21:43.286Z,16.32
2023-02-26T16:24:17.590Z,16.35
2023-02-26T16:26:54.420Z,16.32
2023-02-26T16:29:24.725Z,16.35
2023-02-26T16:32:06.896Z,16.38
2023-02-26T16:34:52.530Z,16.35
2023-02-26T16:37:29.754Z,16.22
2023-02-26T16:40:11.648Z,16.27
2023-02-26T16:43:27.887Z,16.24
2023-02-26T16:45:57.095Z,16.18
2023-02-26T16:48:31.722Z,16.22
2023-02-26T16:51:06.699Z,16.16
2023-02-26T16:53:45.937Z,16.18
2023-02-26T16:56:18.161Z,16.25
2023-02-26T16:58:47.786Z,16.21
2023-02-26T17:01:18.179Z,16.24
2023-02-26T17:04:01.770Z,16.24
2023-02-26T17:06:31.437Z,16.19
2023-02-26T17:09:00.411Z,16.20
2023-02-26T17:11:33.427Z,16.13
2023-02-26T17:14:10.363Z,16.22
2023-02-26T17:16:37.620Z,16.24
2023-02-26T17:19:04.856Z,16.22
2023-02-26T17:21:32.468Z,16.20
2023-02-26T17:23:59.564Z,16.12
2023-02-26T17:26:26.568Z,16.13
2023-02-26T17:28:53.529Z,16.20
2023-02-26T17:31:21.553Z,16.21
2023-02-26T17:33:48.549Z,16.19
2023-02-26T17:36:18.760Z,16.21
2023-02-26T17:38:47.278Z,16.04
2023-02-26T17:41:18.550Z,16.18
2023-02-26T17:43:50.538Z,16.17
2023-02-26T17:46:20.703Z,16.12
2023-02-26T17:48:47.772Z,16.05
2023-02-26T17:51:17.850Z,16.06
2023-02-26T17:54:19.814Z,16.12
2023-02-26T17:56:37.647Z,16.12
2023-02-26T17:59:05.357Z,16.09
2023-02-26T18:01:32.285Z,16.01
2023-02-26T18:04:01.220Z,15.91
2023-02-26T18:06:31.221Z,15.91
2023-02-26T18:08:58.046Z,15.97
2023-02-26T18:11:26.306Z,15.91
2023-02-26T18:13:55.349Z,15.85
2023-02-26T18:16:28.972Z,15.92
2023-02-26T18:18:56.239Z,15.84
2023-02-26T18:21:23.032Z,15.76
2023-02-26T18:23:49.822Z,15.81
2023-02-26T18:26:22.912Z,15.72
2023-02-26T18:31:42.853Z,15.76
2023-02-26T18:34:09.854Z,15.89
2023-02-26T18:36:39.369Z,15.90
2023-02-26T18:39:11.215Z,15.89
2023-02-26T18:41:38.064Z,15.92
2023-02-26T18:44:05.019Z,15.91
2023-02-26T18:46:34.890Z,16.01
2023-02-26T18:49:01.859Z,16.18
2023-02-26T18:51:30.084Z,16.15
2023-02-26T18:53:57.043Z,15.97
2023-02-26T18:56:23.970Z,16.13
2023-02-26T18:58:50.762Z,16.12
2023-02-26T19:01:17.798Z,16.08
2023-02-26T19:03:44.659Z,16.00
2023-02-26T19:06:12.551Z,16.02
2023-02-26T19:08:39.509Z,16.13
2023-02-26T19:11:06.346Z,16.12
2023-02-26T19:13:34.627Z,15.95
2023-02-26T19:16:01.730Z,16.00
2023-02-26T19:18:28.624Z,15.96
2023-02-26T19:21:06.239Z,15.91
2023-02-26T19:23:41.615Z,15.97
2023-02-26T19:26:09.213Z,15.95
2023-02-26T19:28:38.502Z,16.05
2023-02-26T19:31:09.747Z,15.94
2023-02-26T19:33:36.784Z,15.97
2023-02-26T19:36:03.871Z,15.95
2023-02-26T19:38:30.725Z,15.85
2023-02-26T19:40:59.209Z,15.85
2023-02-26T19:43:26.086Z,15.86
2023-02-26T19:45:53.177Z,15.81
2023-02-26T19:48:21.276Z,15.78
2023-02-26T19:50:51.337Z,15.82
2023-02-26T19:53:19.476Z,15.86
2023-02-26T19:55:46.421Z,15.84
2023-02-26T19:58:14.191Z,15.77
2023-02-26T20:00:41.030Z,15.72
2023-02-26T20:03:08.325Z,15.79
2023-02-26T20:05:36.938Z,15.78
2023-02-26T20:08:04.124Z,15.70
2023-02-26T20:10:32.143Z,15.62
2023-02-26T20:12:59.127Z,15.51
2023-02-26T20:15:26.070Z,15.63
2023-02-26T20:17:52.958Z,15.61
2023-02-26T20:20:20.468Z,15.74
2023-02-26T20:22:47.339Z,15.81
2023-02-26T20:25:15.268Z,15.62
2023-02-26T20:27:42.885Z,15.63
2023-02-26T20:30:10.937Z,15.70
2023-02-26T20:32:38.366Z,15.62
2023-02-26T20:35:05.709Z,15.65
2023-02-26T20:37:32.602Z,15.55
2023-02-26T20:39:59.462Z,15.69
2023-02-26T20:42:29.134Z,15.58
2023-02-26T20:44:55.922Z,15.62
2023-02-26T20:47:22.914Z,15.53
2023-02-26T20:49:49.703Z,15.43
2023-02-26T20:52:16.592Z,15.48
2023-02-26T20:54:44.807Z,15.45
2023-02-26T20:57:12.447Z,15.47
2023-02-26T20:59:39.323Z,15.50
2023-02-26T21:02:06.149Z,15.39
2023-02-26T21:04:36.146Z,15.51
2023-02-26T21:07:17.695Z,15.49
2023-02-26T21:09:51.173Z,15.38
2023-02-26T21:12:19.105Z,15.38
2023-02-26T21:14:58.259Z,15.34
2023-02-26T21:17:46.056Z,15.41
2023-02-26T21:20:17.391Z,15.33
2023-02-26T21:22:46.068Z,15.25
2023-02-26T21:25:13.423Z,15.26
2023-02-26T21:27:41.075Z,15.30
2023-02-26T21:30:10.920Z,15.33
2023-02-26T21:32:37.822Z,15.33
2023-02-26T21:35:05.725Z,15.34
2023-02-26T21:37:33.529Z,15.19
2023-02-26T21:40:00.345Z,15.40
2023-02-26T21:42:31.209Z,15.33
2023-02-26T21:44:58.032Z,15.32
2023-02-26T21:47:24.915Z,15.37
2023-02-26T21:49:51.718Z,15.38
2023-02-26T21:52:18.516Z,15.33
2023-02-26T21:54:45.360Z,15.28
2023-02-26T21:57:12.239Z,15.30
2023-02-26T21:59:39.049Z,15.29
2023-02-26T22:02:06.049Z,15.39
2023-02-26T22:04:33.923Z,15.36
2023-02-26T22:07:00.926Z,15.30
2023-02-26T22:09:27.960Z,15.33
2023-02-26T22:11:54.950Z,15.39
2023-02-26T22:14:22.049Z,15.27
2023-02-26T22:16:49.015Z,15.43
2023-02-26T22:19:16.087Z,15.49
2023-02-26T22:21:43.061Z,15.56
2023-02-26T22:24:10.404Z,15.66
2023-02-26T22:26:37.429Z,15.50
2023-02-26T22:29:05.698Z,15.55
2023-02-26T22:31:32.888Z,15.52
2023-02-26T22:34:00.301Z,15.53
2023-02-26T22:36:29.527Z,15.55
2023-02-26T22:38:57.173Z,15.48
2023-02-26T22:41:24.334Z,15.45
2023-02-26T22:43:53.775Z,15.42
2023-02-26T22:46:23.209Z,15.49
2023-02-26T22:48:50.066Z,15.48
2023-02-26T22:51:17.181Z,15.47
2023-02-26T22:53:44.010Z,15.53
2023-02-26T22:56:11.132Z,15.43
2023-02-26T22:58:38.664Z,15.43
2023-02-26T23:01:07.318Z,15.49
2023-02-26T23:03:34.803Z,15.48
2023-02-26T23:06:01.765Z,15.43
2023-02-26T23:08:28.764Z,15.43
2023-02-26T23:10:57.535Z,15.32
2023-02-26T23:13:24.999Z,15.36
2023-02-26T23:15:52.246Z,15.29
2023-02-26T23:18:19.654Z,15.20
2023-02-26T23:20:48.436Z,15.19
2023-02-26T23:23:16.200Z,15.15
2023-02-26T23:25:43.858Z,15.16
2023-02-26T23:28:11.926Z,15.14
2023-02-26T23:30:39.454Z,15.11
2023-02-26T23:33:07.356Z,15.15
2023-02-26T23:35:35.239Z,15.24
2023-02-26T23:38:02.720Z,15.15
2023-02-26T23:40:30.186Z,15.17
2023-02-26T23:42:57.166Z,15.23
2023-02-26T23:45:24.437Z,15.13
2023-02-26T23:47:51.592Z,15.15
2023-02-26T23:50:18.534Z,15.15
2023-02-26T23:52:45.388Z,15.08
2023-02-26T23:55:12.752Z,15.17
2023-02-26T23:57:39.977Z,15.11
